createdAt,value
2023-03-03T00:01:01.427Z,99435.02
2023-03-03T00:03:29.558Z,99435.05
2023-03-03T00:05:57.356Z,99433.86
2023-03-03T00:08:25.433Z,99433.16
2023-03-03T00:10:54.930Z,99435.80
2023-03-03T00:13:24.938Z,99435.83
2023-03-03T00:15:53.831Z,99434.30
2023-03-03T00:18:40.298Z,99438.98
2023-03-03T00:21:22.122Z,99432.77
2023-03-03T00:23:50.035Z,99431.03
2023-03-03T00:26:24.740Z,99432.08
2023-03-03T00:28:54.104Z,99430.22
2023-03-03T00:31:30.135Z,99429.17
2023-03-03T00:34:02.534Z,99427.45
2023-03-03T00:36:37.423Z,99426.58
2023-03-03T00:39:33.164Z,99422.62
2023-03-03T00:42:03.840Z,99421.98
2023-03-03T00:44:42.340Z,99418.03
2023-03-03T00:47:37.703Z,99412.71
2023-03-03T00:50:10.813Z,99409.82
2023-03-03T00:52:40.390Z,99407.59
2023-03-03T00:55:08.320Z,99408.66
2023-03-03T00:57:35.578Z,99404.19
2023-03-03T01:00:04.849Z,99402.14
2023-03-03T01:02:32.507Z,99401.83
2023-03-03T01:04:59.842Z,99396.82
2023-03-03T01:07:27.581Z,99394.23
2023-03-03T01:09:55.389Z,99390.97
2023-03-03T01:12:23.543Z,99394.11
2023-03-03T01:14:52.396Z,99391.00
2023-03-03T01:17:19.532Z,99389.84
2023-03-03T01:19:46.700Z,99389.52
2023-03-03T01:22:13.915Z,99389.70
2023-03-03T01:24:41.029Z,99388.70
2023-03-03T01:27:08.266Z,99393.90
2023-03-03T01:29:35.385Z,99394.05
2023-03-03T01:32:02.599Z,99396.13
2023-03-03T01:34:29.722Z,99394.21
2023-03-03T01:36:56.874Z,99390.39
2023-03-03T01:39:24.027Z,99392.98
2023-03-03T01:41:51.116Z,99397.48
2023-03-03T01:44:18.538Z,99399.42
2023-03-03T01:47:06.469Z,99398.77
2023-03-03T01:49:47.081Z,99395.91
2023-03-03T01:52:33.672Z,99397.18
2023-03-03T01:55:10.909Z,99394.27
2023-03-03T01:57:42.925Z,99401.27
2023-03-03T02:00:11.535Z,99403.05
2023-03-03T02:02:42.621Z,99407.57
2023-03-03T02:05:10.616Z,99407.74
2023-03-03T02:07:38.577Z,99404.65
2023-03-03T02:10:19.135Z,99398.59
2023-03-03T02:12:49.549Z,99406.02
2023-03-03T02:15:17.868Z,99405.52
2023-03-03T02:17:47.812Z,99402.94
2023-03-03T02:20:26.276Z,99400.71
2023-03-03T02:23:05.636Z,99397.95
2023-03-03T02:25:54.480Z,99394.69
2023-03-03T02:28:23.936Z,99395.23
2023-03-03T02:30:54.972Z,99395.98
2023-03-03T02:33:22.187Z,99397.23
2023-03-03T02:35:50.082Z,99397.06
2023-03-03T02:38:20.389Z,99392.75
2023-03-03T02:40:59.457Z,99386.35
2023-03-03T02:43:48.428Z,99384.27
2023-03-03T02:46:15.475Z,99387.21
2023-03-03T02:48:42.582Z,99389.29
2023-03-03T02:51:09.731Z,99391.71
2023-03-03T02:53:36.799Z,99388.60
2023-03-03T02:56:04.263Z,99386.55
2023-03-03T02:58:31.192Z,99382.38
2023-03-03T03:00:58.120Z,99384.12
2023-03-03T03:03:25.243Z,99384.98
2023-03-03T03:05:52.625Z,99383.77
2023-03-03T03:08:20.280Z,99381.69
2023-03-03T03:10:47.807Z,99384.11
2023-03-03T03:13:15.088Z,99381.18
2023-03-03T03:15:46.261Z,99382.91
2023-03-03T03:18:14.665Z,99380.14
2023-03-03T03:20:42.523Z,99381.73
2023-03-03T03:23:11.218Z,99381.73
2023-03-03T03:25:44.610Z,99377.59
2023-03-03T03:28:16.540Z,99376.91
2023-03-03T03:30:45.195Z,99372.58
2023-03-03T03:33:12.901Z,99373.64
2023-03-03T03:35:44.907Z,99372.96
2023-03-03T03:38:13.874Z,99374.00
2023-03-03T03:40:43.166Z,99373.31
2023-03-03T03:43:10.077Z,99371.05
2023-03-03T03:45:37.093Z,99368.98
2023-03-03T03:48:05.132Z,99368.78
2023-03-03T03:50:32.421Z,99370.85
2023-03-03T03:52:59.544Z,99370.65
2023-03-03T03:55:27.300Z,99368.58
2023-03-03T03:57:56.014Z,99366.33
2023-03-03T04:00:23.632Z,99365.27
2023-03-03T04:02:51.800Z,99370.13
2023-03-03T04:05:19.361Z,99371.87
2023-03-03T04:07:46.962Z,99374.28
2023-03-03T04:10:14.959Z,99371.98
2023-03-03T04:12:42.413Z,99370.78
2023-03-03T04:15:14.622Z,99370.77
2023-03-03T04:17:42.896Z,99376.81
2023-03-03T04:20:13.702Z,99372.32
2023-03-03T04:22:41.915Z,99369.56
2023-03-03T04:25:13.900Z,99371.14
2023-03-03T04:27:42.611Z,99372.20
2023-03-03T04:30:12.105Z,99369.62
2023-03-03T04:32:39.349Z,99368.77
2023-03-03T04:35:09.176Z,99368.12
2023-03-03T04:37:38.542Z,99366.58
2023-03-03T04:40:09.327Z,99364.17
2023-03-03T04:42:37.157Z,99369.04
2023-03-03T04:45:05.361Z,99366.61
2023-03-03T04:47:33.126Z,99363.33
2023-03-03T04:50:00.550Z,99363.86
2023-03-03T04:52:28.494Z,99366.82
2023-03-03T04:54:56.005Z,99367.70
2023-03-03T04:57:23.233Z,99371.17
2023-03-03T04:59:51.642Z,99372.39
2023-03-03T05:02:19.525Z,99371.71
2023-03-03T05:04:46.822Z,99375.02
2023-03-03T05:07:13.868Z,99375.35
2023-03-03T05:09:40.875Z,99373.96
2023-03-03T05:12:07.929Z,99375.33
2023-03-03T05:14:35.165Z,99374.26
2023-03-03T05:17:05.346Z,99372.67
2023-03-03T05:19:34.379Z,99374.53
2023-03-03T05:22:01.752Z,99371.54
2023-03-03T05:24:28.993Z,99370.64
2023-03-03T05:26:56.042Z,99369.70
2023-03-03T05:29:23.016Z,99368.08
2023-03-03T05:31:50.116Z,99372.51
2023-03-03T05:34:17.168Z,99376.23
2023-03-03T05:36:44.227Z,99377.00
2023-03-03T05:39:11.172Z,99380.02
2023-03-03T05:41:38.283Z,99386.48
2023-03-03T05:44:05.823Z,99384.48
2023-03-03T05:46:32.756Z,99387.15
2023-03-03T05:49:00.361Z,99385.50
2023-03-03T05:51:27.461Z,99384.02
2023-03-03T05:53:56.436Z,99389.10
2023-03-03T05:56:23.805Z,99391.42
2023-03-03T05:58:50.780Z,99387.84
2023-03-03T06:01:17.925Z,99395.69
2023-03-03T06:03:45.004Z,99393.45
2023-03-03T06:06:13.637Z,99396.95
2023-03-03T06:08:40.598Z,99400.98
2023-03-03T06:11:07.773Z,99404.48
2023-03-03T06:13:35.034Z,99404.52
2023-03-03T06:16:02.489Z,99402.83
2023-03-03T06:18:29.751Z,99405.45
2023-03-03T06:20:56.767Z,99408.59
2023-03-03T06:23:23.837Z,99406.53
2023-03-03T06:25:51.068Z,99404.45
2023-03-03T06:28:18.215Z,99410.33
2023-03-03T06:30:45.173Z,99416.02
2023-03-03T06:33:12.272Z,99413.40
2023-03-03T06:35:39.288Z,99418.77
2023-03-03T06:38:06.270Z,99420.31
2023-03-03T06:40:33.362Z,99419.23
2023-03-03T06:43:02.701Z,99421.45
2023-03-03T06:45:29.865Z,99417.27
2023-03-03T06:47:56.948Z,99414.27
2023-03-03T06:50:23.795Z,99416.29
2023-03-03T06:53:07.147Z,99414.69
2023-03-03T06:55:34.321Z,99414.77
2023-03-03T06:58:02.476Z,99414.85
2023-03-03T07:00:31.209Z,99407.08
2023-03-03T07:03:11.793Z,99403.59
2023-03-03T07:05:38.909Z,99392.73
2023-03-03T07:08:12.697Z,99388.81
2023-03-03T07:10:39.821Z,99383.65
2023-03-03T07:13:28.189Z,99387.72
2023-03-03T07:16:11.237Z,99386.73
2023-03-03T07:18:53.290Z,99386.31
2023-03-03T07:21:23.060Z,99392.46
2023-03-03T07:23:52.180Z,99388.11
2023-03-03T07:26:30.126Z,99384.42
2023-03-03T07:29:14.893Z,99382.73
2023-03-03T07:31:47.245Z,99377.74
2023-03-03T07:34:18.683Z,99370.61
2023-03-03T07:36:45.785Z,99376.95
2023-03-03T07:39:40.270Z,99380.28
2023-03-03T07:42:28.623Z,99373.77
2023-03-03T07:45:28.240Z,99375.33
2023-03-03T07:48:21.030Z,99373.16
2023-03-03T07:50:49.456Z,99368.79
2023-03-03T07:53:36.815Z,99349.69
2023-03-03T07:56:24.982Z,99335.61
2023-03-03T07:58:52.663Z,99329.55
2023-03-03T08:01:28.765Z,99333.78
2023-03-03T08:03:56.332Z,99342.02
2023-03-03T08:06:35.438Z,99350.98
2023-03-03T08:09:29.251Z,99359.03
2023-03-03T08:12:15.175Z,99360.50
2023-03-03T08:14:42.237Z,99357.75
2023-03-03T08:17:30.636Z,99360.78
2023-03-03T08:19:57.650Z,99362.73
2023-03-03T08:22:33.343Z,99365.15
2023-03-03T08:25:00.526Z,99368.45
2023-03-03T08:27:27.669Z,99356.93
2023-03-03T08:29:54.749Z,99357.38
2023-03-03T08:32:22.292Z,99347.85
2023-03-03T08:34:49.323Z,99355.79
2023-03-03T08:37:16.270Z,99358.04
2023-03-03T08:39:43.654Z,99361.56
2023-03-03T08:42:10.559Z,99356.84
2023-03-03T08:44:37.761Z,99359.79
2023-03-03T08:47:05.677Z,99364.34
2023-03-03T08:49:33.081Z,99369.27
2023-03-03T08:52:01.176Z,99365.90
2023-03-03T08:54:28.747Z,99372.04
2023-03-03T08:56:55.687Z,99365.73
2023-03-03T08:59:22.631Z,99362.36
2023-03-03T09:01:49.674Z,99360.55
2023-03-03T09:04:16.771Z,99350.55
2023-03-03T09:06:43.862Z,99353.36
2023-03-03T09:09:11.190Z,99352.84
2023-03-03T09:11:38.344Z,99356.49
2023-03-03T09:14:15.570Z,99358.19
2023-03-03T09:16:54.767Z,99357.76
2023-03-03T09:19:39.840Z,99363.05
2023-03-03T09:22:16.173Z,99369.95
2023-03-03T09:24:43.285Z,99372.19
2023-03-03T09:27:26.836Z,99364.73
2023-03-03T09:29:56.990Z,99365.36
2023-03-03T09:32:35.195Z,99359.94
2023-03-03T09:35:38.477Z,99360.27
2023-03-03T09:38:27.479Z,99354.18
2023-03-03T09:41:27.916Z,99355.35
2023-03-03T09:44:07.321Z,99355.75
2023-03-03T09:46:38.805Z,99351.61
2023-03-03T09:49:15.260Z,99351.26
2023-03-03T09:51:45.303Z,99354.62
2023-03-03T09:54:21.086Z,99356.35
2023-03-03T09:56:59.056Z,99363.66
2023-03-03T09:59:29.426Z,99366.17
2023-03-03T10:02:25.009Z,99363.77
2023-03-03T10:05:14.081Z,99361.66
2023-03-03T10:07:49.478Z,99354.55
2023-03-03T10:10:25.506Z,99351.60
2023-03-03T10:13:20.838Z,99349.79
2023-03-03T10:16:31.709Z,99356.89
2023-03-03T10:19:03.223Z,99362.58
2023-03-03T10:22:10.667Z,99369.39
2023-03-03T10:25:22.991Z,99371.28
2023-03-03T10:28:37.347Z,99374.09
2023-03-03T10:31:42.604Z,99369.79
2023-03-03T10:34:56.501Z,99375.69
2023-03-03T10:37:43.010Z,99374.83
2023-03-03T10:40:24.990Z,99379.54
2023-03-03T10:43:13.740Z,99381.98
2023-03-03T10:46:03.506Z,99375.17
2023-03-03T10:48:51.499Z,99374.05
2023-03-03T10:51:41.812Z,99368.05
2023-03-03T10:54:24.209Z,99368.22
2023-03-03T10:57:13.110Z,99379.40
2023-03-03T11:00:00.820Z,99370.92
2023-03-03T11:02:39.249Z,99366.00
2023-03-03T11:05:54.240Z,99370.66
2023-03-03T11:08:44.341Z,99366.63
2023-03-03T11:11:14.517Z,99368.23
2023-03-03T11:13:46.312Z,99366.75
2023-03-03T11:16:26.338Z,99373.14
2023-03-03T11:19:08.915Z,99376.38
2023-03-03T11:22:04.833Z,99376.08
2023-03-03T11:25:03.094Z,99378.31
2023-03-03T11:27:36.338Z,99382.70
2023-03-03T11:30:40.996Z,99384.34
2023-03-03T11:33:41.290Z,99379.06
2023-03-03T11:36:22.878Z,99371.34
2023-03-03T11:39:17.029Z,99371.67
2023-03-03T11:42:16.598Z,99374.47
2023-03-03T11:45:11.854Z,99373.52
2023-03-03T11:47:50.801Z,99375.37
2023-03-03T11:50:53.266Z,99376.92
2023-03-03T11:53:29.313Z,99373.63
2023-03-03T11:56:07.115Z,99368.66
2023-03-03T11:59:18.689Z,99368.32
2023-03-03T12:01:57.722Z,99362.34
2023-03-03T12:04:36.505Z,99359.02
2023-03-03T12:08:10.487Z,99360.65
2023-03-03T12:10:55.129Z,99358.14
2023-03-03T12:13:44.286Z,99356.79
2023-03-03T12:16:23.856Z,99356.95
2023-03-03T12:18:59.736Z,99357.59
2023-03-03T12:21:39.089Z,99359.41
2023-03-03T12:24:25.067Z,99357.45
2023-03-03T12:27:09.977Z,99354.09
2023-03-03T12:33:42.222Z,99349.86
2023-03-03T12:36:45.673Z,99349.50
2023-03-03T12:39:34.682Z,99348.74
2023-03-03T12:42:41.448Z,99348.69
2023-03-03T12:45:43.437Z,99351.20
2023-03-03T12:48:19.816Z,99349.81
2023-03-03T12:51:14.881Z,99340.05
2023-03-03T12:54:19.716Z,99338.91
2023-03-03T12:56:57.825Z,99336.98
2023-03-03T13:00:22.772Z,99332.05
2023-03-03T13:03:08.727Z,99329.99
2023-03-03T13:05:55.180Z,99326.15
2023-03-03T13:08:32.044Z,99322.56
2023-03-03T13:11:05.405Z,99318.86
2023-03-03T13:13:44.475Z,99313.92
2023-03-03T13:16:17.362Z,99307.70
2023-03-03T13:18:49.264Z,99309.13
2023-03-03T13:21:31.492Z,99312.47
2023-03-03T13:24:17.837Z,99318.17
2023-03-03T13:26:58.180Z,99320.90
2023-03-03T13:30:04.460Z,99321.99
2023-03-03T13:32:43.186Z,99323.16
2023-03-03T13:35:46.684Z,99322.30
2023-03-03T13:38:42.525Z,99324.64
2023-03-03T13:41:17.279Z,99328.84
2023-03-03T13:43:59.610Z,99334.52
2023-03-03T13:47:00.952Z,99332.70
2023-03-03T13:49:47.586Z,99333.49
2023-03-03T13:52:20.804Z,99333.63
2023-03-03T13:55:12.192Z,99334.23
2023-03-03T13:57:42.053Z,99334.66
2023-03-03T14:00:40.208Z,99339.36
2023-03-03T14:03:46.016Z,99344.69
2023-03-03T14:06:29.389Z,99346.09
2023-03-03T14:09:10.859Z,99344.64
2023-03-03T14:12:11.980Z,99339.52
2023-03-03T14:14:46.924Z,99338.52
2023-03-03T14:17:31.047Z,99341.65
2023-03-03T14:20:23.248Z,99339.00
2023-03-03T14:22:58.149Z,99334.67
2023-03-03T14:25:25.275Z,99339.09
2023-03-03T14:28:03.924Z,99338.87
2023-03-03T14:30:33.199Z,99336.70
2023-03-03T14:33:08.676Z,99337.49
2023-03-03T14:35:42.026Z,99339.23
2023-03-03T14:38:22.688Z,99348.52
2023-03-03T14:41:05.923Z,99347.57
2023-03-03T14:43:36.940Z,99346.27
2023-03-03T14:46:36.876Z,99350.66
2023-03-03T14:49:12.778Z,99348.48
2023-03-03T14:51:40.132Z,99347.85
2023-03-03T14:54:18.676Z,99358.31
2023-03-03T14:57:15.715Z,99358.84
2023-03-03T15:00:16.109Z,99358.97
2023-03-03T15:02:52.365Z,99356.99
2023-03-03T15:05:30.823Z,99357.53
2023-03-03T15:08:03.635Z,99353.20
2023-03-03T15:10:41.573Z,99349.61
2023-03-03T15:13:20.742Z,99350.23
2023-03-03T15:16:04.382Z,99350.33
2023-03-03T15:18:32.875Z,99353.70
2023-03-03T15:21:07.757Z,99358.59
2023-03-03T15:23:43.735Z,99356.52
2023-03-03T15:26:33.675Z,99354.48
2023-03-03T15:29:24.344Z,99356.89
2023-03-03T15:32:22.549Z,99357.63
2023-03-03T15:35:27.780Z,99357.00
2023-03-03T15:38:21.125Z,99356.45
2023-03-03T15:41:01.742Z,99359.11
2023-03-03T15:43:38.573Z,99359.39
2023-03-03T15:46:11.768Z,99360.67
2023-03-03T15:48:53.346Z,99361.15
2023-03-03T15:51:23.331Z,99357.36
2023-03-03T15:54:21.104Z,99361.29
2023-03-03T15:56:53.340Z,99364.64
2023-03-03T15:59:32.486Z,99362.33
2023-03-03T16:02:19.822Z,99365.59
2023-03-03T16:04:53.896Z,99361.52
2023-03-03T16:08:03.021Z,99364.95
2023-03-03T16:10:55.071Z,99370.15
2023-03-03T16:13:36.677Z,99372.33
2023-03-03T16:16:29.114Z,99373.80
2023-03-03T16:19:33.739Z,99376.86
2023-03-03T16:22:36.210Z,99382.04
2023-03-03T16:25:26.573Z,99380.78
2023-03-03T16:27:53.626Z,99384.55
2023-03-03T16:30:26.899Z,99386.88
2023-03-03T16:33:08.800Z,99386.05
2023-03-03T16:35:47.213Z,99383.84
2023-03-03T16:38:25.120Z,99384.84
2023-03-03T16:40:58.606Z,99388.02
2023-03-03T16:43:28.642Z,99390.30
2023-03-03T16:46:02.181Z,99387.73
2023-03-03T16:49:01.468Z,99393.04
2023-03-03T16:51:48.077Z,99394.28
2023-03-03T16:54:32.936Z,99395.84
2023-03-03T16:57:44.061Z,99398.30
2023-03-03T17:00:21.078Z,99399.56
2023-03-03T17:02:57.089Z,99398.21
2023-03-03T17:06:02.138Z,99396.82
2023-03-03T17:08:52.976Z,99400.66
2023-03-03T17:11:28.357Z,99401.73
2023-03-03T17:14:07.026Z,99402.86
2023-03-03T17:17:00.382Z,99401.48
2023-03-03T17:19:45.738Z,99400.27
2023-03-03T17:22:39.134Z,99398.90
2023-03-03T17:25:45.444Z,99394.75
2023-03-03T17:28:34.916Z,99395.14
2023-03-03T17:31:31.599Z,99390.11
2023-03-03T17:34:41.836Z,99392.23
2023-03-03T17:37:14.525Z,99396.06
2023-03-03T17:39:59.395Z,99392.56
2023-03-03T17:42:44.903Z,99389.95
2023-03-03T17:45:16.704Z,99396.08
2023-03-03T17:47:55.666Z,99393.30
2023-03-03T17:50:34.816Z,99395.27
2023-03-03T17:53:28.492Z,99394.42
2023-03-03T17:56:09.264Z,99391.35
2023-03-03T17:59:11.421Z,99389.31
2023-03-03T18:02:00.016Z,99389.67
2023-03-03T18:04:35.904Z,99387.42
2023-03-03T18:07:21.328Z,99394.30
2023-03-03T18:10:12.412Z,99394.48
2023-03-03T18:13:26.234Z,99395.71
2023-03-03T18:16:14.738Z,99394.84
2023-03-03T18:18:50.800Z,99394.66
2023-03-03T18:21:26.869Z,99396.59
2023-03-03T18:24:33.457Z,99396.42
2023-03-03T18:27:36.839Z,99396.49
2023-03-03T18:30:20.871Z,99399.85
2023-03-03T18:32:56.903Z,99403.39
2023-03-03T18:35:41.244Z,99403.78
2023-03-03T18:38:17.528Z,99405.20
2023-03-03T18:40:52.549Z,99407.31
2023-03-03T18:43:44.749Z,99404.55
2023-03-03T18:46:24.429Z,99403.36
2023-03-03T18:48:57.113Z,99401.64
2023-03-03T18:51:39.188Z,99404.08
2023-03-03T18:54:16.378Z,99404.09
2023-03-03T18:57:04.444Z,99400.78
2023-03-03T18:59:34.530Z,99404.27
2023-03-03T19:02:20.512Z,99406.40
2023-03-03T19:04:55.775Z,99404.15
2023-03-03T19:07:42.806Z,99402.73
2023-03-03T19:10:18.680Z,99399.55
2023-03-03T19:12:51.657Z,99394.64
2023-03-03T19:15:31.460Z,99391.66
2023-03-03T19:17:59.850Z,99383.11
2023-03-03T19:20:40.102Z,99379.27
2023-03-03T19:23:44.882Z,99375.42
2023-03-03T19:26:47.519Z,99370.05
2023-03-03T19:29:14.424Z,99366.42
2023-03-03T19:32:15.646Z,99368.42
2023-03-03T19:35:06.005Z,99368.46
2023-03-03T19:37:47.937Z,99368.67
2023-03-03T19:40:43.244Z,99370.05
2023-03-03T19:43:30.824Z,99370.79
2023-03-03T19:46:06.865Z,99375.04
2023-03-03T19:48:47.859Z,99375.58
2023-03-03T19:51:49.444Z,99381.52
2023-03-03T19:54:49.027Z,99381.18
2023-03-03T19:57:43.282Z,99380.88
2023-03-03T20:00:42.677Z,99379.48
2023-03-03T20:03:36.807Z,99379.13
2023-03-03T20:06:29.446Z,99384.36
2023-03-03T20:09:35.400Z,99384.39
2023-03-03T20:12:41.039Z,99382.30
2023-03-03T20:15:23.652Z,99378.56
2023-03-03T20:17:59.008Z,99373.17
2023-03-03T20:20:48.591Z,99372.67
2023-03-03T20:24:09.617Z,99374.80
2023-03-03T20:26:42.415Z,99373.44
2023-03-03T20:29:32.857Z,99369.14
2023-03-03T20:32:18.051Z,99366.52
2023-03-03T20:35:02.972Z,99369.10
2023-03-03T20:37:44.086Z,99361.27
2023-03-03T20:40:37.711Z,99362.55
2023-03-03T20:43:38.654Z,99365.77
2023-03-03T20:46:40.950Z,99364.79
2023-03-03T20:49:35.743Z,99355.81
2023-03-03T20:52:26.990Z,99359.00
2023-03-03T20:55:22.815Z,99358.83
2023-03-03T20:57:55.800Z,99363.57
2023-03-03T21:01:03.655Z,99361.81
2023-03-03T21:03:37.708Z,99360.67
2023-03-03T21:06:14.631Z,99357.41
2023-03-03T21:08:54.419Z,99358.86
2023-03-03T21:11:30.549Z,99359.06
2023-03-03T21:13:59.463Z,99359.13
2023-03-03T21:16:26.404Z,99357.23
2023-03-03T21:19:10.166Z,99355.52
2023-03-03T21:21:46.479Z,99350.97
2023-03-03T21:24:18.957Z,99353.98
2023-03-03T21:26:49.855Z,99351.55
2023-03-03T21:29:27.613Z,99351.73
2023-03-03T21:32:06.017Z,99348.42
2023-03-03T21:34:33.371Z,99344.80
2023-03-03T21:37:03.618Z,99336.95
2023-03-03T21:39:32.122Z,99331.67
2023-03-03T21:42:38.453Z,99325.23
2023-03-03T21:45:09.370Z,99321.42
2023-03-03T21:47:36.525Z,99320.91
2023-03-03T21:50:03.834Z,99320.93
2023-03-03T21:52:32.265Z,99318.55
2023-03-03T21:54:59.149Z,99324.14
2023-03-03T21:57:26.287Z,99322.92
2023-03-03T21:59:53.486Z,99318.21
2023-03-03T22:02:20.465Z,99311.93
2023-03-03T22:04:47.725Z,99308.97
2023-03-03T22:07:14.787Z,99306.69
2023-03-03T22:09:41.830Z,99313.13
2023-03-03T22:12:08.967Z,99313.29
2023-03-03T22:14:35.969Z,99310.45
2023-03-03T22:17:02.981Z,99309.23
2023-03-03T22:19:30.783Z,99310.61
2023-03-03T22:21:57.855Z,99304.01
2023-03-03T22:24:24.882Z,99300.23
2023-03-03T22:26:51.828Z,99296.94
2023-03-03T22:29:22.146Z,99295.56
2023-03-03T22:31:50.347Z,99290.04
2023-03-03T22:34:17.844Z,99277.52
2023-03-03T22:36:44.852Z,99275.97
2023-03-03T22:39:11.786Z,99266.58
2023-03-03T22:41:38.756Z,99263.09
2023-03-03T22:44:05.757Z,99255.94
2023-03-03T22:46:32.708Z,99257.40
2023-03-03T22:48:59.721Z,99251.83
2023-03-03T22:51:26.820Z,99248.70
2023-03-03T22:53:53.785Z,99240.35
2023-03-03T22:56:20.741Z,99237.60
2023-03-03T22:58:48.932Z,99235.54
2023-03-03T23:01:15.921Z,99226.63
2023-03-03T23:03:42.863Z,99223.98
2023-03-03T23:06:09.809Z,99222.98
2023-03-03T23:08:36.731Z,99220.20
2023-03-03T23:11:03.903Z,99214.65
2023-03-03T23:13:31.843Z,99217.44
2023-03-03T23:15:59.591Z,99213.61
2023-03-03T23:18:27.931Z,99206.11
2023-03-03T23:20:55.773Z,99204.73
2023-03-03T23:23:22.778Z,99204.21
2023-03-03T23:25:49.841Z,99204.56
2023-03-03T23:28:18.574Z,99201.95
2023-03-03T23:30:45.571Z,99204.05
2023-03-03T23:33:12.488Z,99205.61
2023-03-03T23:35:39.757Z,99211.16
2023-03-03T23:38:07.007Z,99215.83
2023-03-03T23:40:34.288Z,99216.85
2023-03-03T23:43:01.387Z,99217.70
2023-03-03T23:45:28.436Z,99212.76
2023-03-03T23:47:55.959Z,99208.02
2023-03-03T23:50:23.124Z,99207.11
2023-03-03T23:52:50.364Z,99202.52
2023-03-03T23:55:17.471Z,99193.80
2023-03-03T23:57:44.507Z,99195.54
